sensor_id;sensor_type;location;lat;lon;timestamp;temperature;humidity
68251;DHT22;55066;51.560;4.642;2022-09-25T00:01:06;10.33;91.44
68251;DHT22;55066;51.560;4.642;2022-09-25T00:03:32;10.25;91.83
68251;DHT22;55066;51.560;4.642;2022-09-25T00:06:07;10.34;91.44
68251;DHT22;55066;51.560;4.642;2022-09-25T00:08:34;10.33;91.38
68251;DHT22;55066;51.560;4.642;2022-09-25T00:11:05;10.27;91.68
68251;DHT22;55066;51.560;4.642;2022-09-25T00:13:31;10.27;91.61
68251;DHT22;55066;51.560;4.642;2022-09-25T00:15:57;10.28;91.43
68251;DHT22;55066;51.560;4.642;2022-09-25T00:18:24;10.38;91.09
68251;DHT22;55066;51.560;4.642;2022-09-25T00:21:11;10.27;91.51
68251;DHT22;55066;51.560;4.642;2022-09-25T00:23:37;10.20;91.35
68251;DHT22;55066;51.560;4.642;2022-09-25T00:26:04;10.16;91.25
68251;DHT22;55066;51.560;4.642;2022-09-25T00:28:36;10.21;91.74
68251;DHT22;55066;51.560;4.642;2022-09-25T00:31:03;10.10;95.21
68251;DHT22;55066;51.560;4.642;2022-09-25T00:33:29;9.99;91.41
68251;DHT22;55066;51.560;4.642;2022-09-25T00:36:00;10.04;91.56
68251;DHT22;55066;51.560;4.642;2022-09-25T00:38:26;9.96;91.59
68251;DHT22;55066;51.560;4.642;2022-09-25T00:40:51;10.00;92.05
68251;DHT22;55066;51.560;4.642;2022-09-25T00:43:36;9.90;91.60
68251;DHT22;55066;51.560;4.642;2022-09-25T00:46:13;9.87;91.39
68251;DHT22;55066;51.560;4.642;2022-09-25T00:49:05;9.82;91.56
68251;DHT22;55066;51.560;4.642;2022-09-25T00:51:39;9.85;91.33
68251;DHT22;55066;51.560;4.642;2022-09-25T00:54:09;9.83;91.22
68251;DHT22;55066;51.560;4.642;2022-09-25T00:56:40;9.78;91.36
68251;DHT22;55066;51.560;4.642;2022-09-25T00:59:10;9.82;91.25
68251;DHT22;55066;51.560;4.642;2022-09-25T01:01:37;9.83;90.91
68251;DHT22;55066;51.560;4.642;2022-09-25T01:04:03;9.72;92.31
68251;DHT22;55066;51.560;4.642;2022-09-25T01:06:29;9.71;91.20
68251;DHT22;55066;51.560;4.642;2022-09-25T01:08:56;9.73;90.96
68251;DHT22;55066;51.560;4.642;2022-09-25T01:11:21;9.73;90.88
68251;DHT22;55066;51.560;4.642;2022-09-25T01:13:47;9.69;90.82
68251;DHT22;55066;51.560;4.642;2022-09-25T01:28:38;9.52;90.88
68251;DHT22;55066;51.560;4.642;2022-09-25T01:31:16;9.51;90.86
68251;DHT22;55066;51.560;4.642;2022-09-25T01:33:54;9.46;90.77
68251;DHT22;55066;51.560;4.642;2022-09-25T01:36:34;9.46;90.61
68251;DHT22;55066;51.560;4.642;2022-09-25T01:39:38;9.39;90.88
68251;DHT22;55066;51.560;4.642;2022-09-25T01:42:01;9.39;90.65
68251;DHT22;55066;51.560;4.642;2022-09-25T01:44:35;9.39;91.40
68251;DHT22;55066;51.560;4.642;2022-09-25T01:47:07;9.34;90.62
68251;DHT22;55066;51.560;4.642;2022-09-25T01:49:55;9.26;91.28
68251;DHT22;55066;51.560;4.642;2022-09-25T01:52:29;9.31;90.68
68251;DHT22;55066;51.560;4.642;2022-09-25T01:55:14;9.31;90.40
68251;DHT22;55066;51.560;4.642;2022-09-25T01:57:47;9.31;90.33
68251;DHT22;55066;51.560;4.642;2022-09-25T02:00:21;9.30;90.25
68251;DHT22;55066;51.560;4.642;2022-09-25T02:03:20;9.27;90.32
68251;DHT22;55066;51.560;4.642;2022-09-25T02:05:49;9.26;90.10
68251;DHT22;55066;51.560;4.642;2022-09-25T02:08:21;9.17;90.16
68251;DHT22;55066;51.560;4.642;2022-09-25T02:10:55;9.16;90.24
68251;DHT22;55066;51.560;4.642;2022-09-25T02:13:24;9.17;90.04
68251;DHT22;55066;51.560;4.642;2022-09-25T02:15:55;9.13;90.01
68251;DHT22;55066;51.560;4.642;2022-09-25T02:18:23;9.11;89.96
68251;DHT22;55066;51.560;4.642;2022-09-25T02:21:41;9.11;90.05
68251;DHT22;55066;51.560;4.642;2022-09-25T02:24:19;9.03;90.16
68251;DHT22;55066;51.560;4.642;2022-09-25T02:26:46;9.04;90.01
68251;DHT22;55066;51.560;4.642;2022-09-25T02:29:13;9.03;90.06
68251;DHT22;55066;51.560;4.642;2022-09-25T02:34:11;8.94;90.04
68251;DHT22;55066;51.560;4.642;2022-09-25T02:36:36;8.91;90.06
68251;DHT22;55066;51.560;4.642;2022-09-25T02:39:03;8.90;90.01
68251;DHT22;55066;51.560;4.642;2022-09-25T02:44:29;8.83;89.97
68251;DHT22;55066;51.560;4.642;2022-09-25T02:50:07;8.81;89.91
68251;DHT22;55066;51.560;4.642;2022-09-25T02:55:53;8.75;90.23
68251;DHT22;55066;51.560;4.642;2022-09-25T02:58:26;8.69;89.90
68251;DHT22;55066;51.560;4.642;2022-09-25T03:00:54;8.68;90.04
68251;DHT22;55066;51.560;4.642;2022-09-25T03:03:23;8.65;89.99
68251;DHT22;55066;51.560;4.642;2022-09-25T03:05:51;8.59;89.99
68251;DHT22;55066;51.560;4.642;2022-09-25T03:08:19;8.63;89.98
68251;DHT22;55066;51.560;4.642;2022-09-25T03:11:11;8.61;89.73
68251;DHT22;55066;51.560;4.642;2022-09-25T03:13:37;8.62;89.65
68251;DHT22;55066;51.560;4.642;2022-09-25T03:16:19;8.55;89.75
68251;DHT22;55066;51.560;4.642;2022-09-25T03:18:48;8.53;89.80
68251;DHT22;55066;51.560;4.642;2022-09-25T03:21:13;8.53;89.74
68251;DHT22;55066;51.560;4.642;2022-09-25T03:23:39;8.52;89.71
68251;DHT22;55066;51.560;4.642;2022-09-25T03:26:05;8.46;89.66
68251;DHT22;55066;51.560;4.642;2022-09-25T03:28:32;8.46;89.69
68251;DHT22;55066;51.560;4.642;2022-09-25T03:31:00;8.45;89.67
68251;DHT22;55066;51.560;4.642;2022-09-25T03:33:28;8.44;89.57
68251;DHT22;55066;51.560;4.642;2022-09-25T03:36:06;8.41;89.65
68251;DHT22;55066;51.560;4.642;2022-09-25T03:38:33;8.35;89.77
68251;DHT22;55066;51.560;4.642;2022-09-25T03:40:58;8.31;89.73
68251;DHT22;55066;51.560;4.642;2022-09-25T03:43:24;8.30;89.71
68251;DHT22;55066;51.560;4.642;2022-09-25T03:45:49;8.28;89.60
68251;DHT22;55066;51.560;4.642;2022-09-25T03:48:14;8.28;89.58
68251;DHT22;55066;51.560;4.642;2022-09-25T03:50:40;8.30;89.57
68251;DHT22;55066;51.560;4.642;2022-09-25T03:53:06;8.25;89.47
68251;DHT22;55066;51.560;4.642;2022-09-25T03:55:31;8.24;89.58
68251;DHT22;55066;51.560;4.642;2022-09-25T03:57:57;8.23;89.48
68251;DHT22;55066;51.560;4.642;2022-09-25T04:00:23;8.20;89.50
68251;DHT22;55066;51.560;4.642;2022-09-25T04:02:48;8.14;89.46
68251;DHT22;55066;51.560;4.642;2022-09-25T04:05:15;8.17;89.50
68251;DHT22;55066;51.560;4.642;2022-09-25T04:07:40;8.11;89.40
68251;DHT22;55066;51.560;4.642;2022-09-25T04:10:06;8.10;89.48
68251;DHT22;55066;51.560;4.642;2022-09-25T04:12:32;8.10;89.44
68251;DHT22;55066;51.560;4.642;2022-09-25T04:14:57;8.08;89.31
68251;DHT22;55066;51.560;4.642;2022-09-25T04:17:23;8.07;89.43
68251;DHT22;55066;51.560;4.642;2022-09-25T04:19:48;8.05;89.39
68251;DHT22;55066;51.560;4.642;2022-09-25T04:22:14;8.05;89.20
68251;DHT22;55066;51.560;4.642;2022-09-25T04:24:39;8.07;89.30
68251;DHT22;55066;51.560;4.642;2022-09-25T04:27:18;8.07;89.26
68251;DHT22;55066;51.560;4.642;2022-09-25T04:29:45;8.13;89.06
68251;DHT22;55066;51.560;4.642;2022-09-25T04:32:11;8.28;88.44
68251;DHT22;55066;51.560;4.642;2022-09-25T04:34:55;8.42;87.94
68251;DHT22;55066;51.560;4.642;2022-09-25T04:37:20;8.52;87.46
68251;DHT22;55066;51.560;4.642;2022-09-25T04:39:54;8.59;87.17
68251;DHT22;55066;51.560;4.642;2022-09-25T04:42:20;8.63;86.97
68251;DHT22;55066;51.560;4.642;2022-09-25T04:44:50;8.65;86.79
68251;DHT22;55066;51.560;4.642;2022-09-25T04:47:16;8.62;87.24
68251;DHT22;55066;51.560;4.642;2022-09-25T04:49:41;8.61;88.07
68251;DHT22;55066;51.560;4.642;2022-09-25T04:52:06;8.65;87.95
68251;DHT22;55066;51.560;4.642;2022-09-25T04:54:32;8.59;89.11
68251;DHT22;55066;51.560;4.642;2022-09-25T04:56:57;8.53;91.02
68251;DHT22;55066;51.560;4.642;2022-09-25T04:59:22;8.49;88.29
68251;DHT22;55066;51.560;4.642;2022-09-25T05:01:48;8.45;87.79
68251;DHT22;55066;51.560;4.642;2022-09-25T05:04:13;8.38;89.07
68251;DHT22;55066;51.560;4.642;2022-09-25T05:06:40;8.37;88.02
68251;DHT22;55066;51.560;4.642;2022-09-25T05:09:06;8.28;88.20
68251;DHT22;55066;51.560;4.642;2022-09-25T05:11:31;8.21;88.20
68251;DHT22;55066;51.560;4.642;2022-09-25T05:13:56;8.17;88.46
68251;DHT22;55066;51.560;4.642;2022-09-25T05:16:22;8.11;88.63
68251;DHT22;55066;51.560;4.642;2022-09-25T05:18:47;8.08;88.83
68251;DHT22;55066;51.560;4.642;2022-09-25T05:21:13;8.01;88.96
68251;DHT22;55066;51.560;4.642;2022-09-25T05:23:38;7.94;89.02
68251;DHT22;55066;51.560;4.642;2022-09-25T05:26:04;8.00;90.54
68251;DHT22;55066;51.560;4.642;2022-09-25T05:28:30;8.00;89.56
68251;DHT22;55066;51.560;4.642;2022-09-25T05:31:00;7.94;89.44
68251;DHT22;55066;51.560;4.642;2022-09-25T05:33:33;7.87;89.61
68251;DHT22;55066;51.560;4.642;2022-09-25T05:36:03;7.89;89.41
68251;DHT22;55066;51.560;4.642;2022-09-25T05:38:33;7.87;89.31
68251;DHT22;55066;51.560;4.642;2022-09-25T05:41:03;7.83;89.43
68251;DHT22;55066;51.560;4.642;2022-09-25T05:43:30;7.85;89.58
68251;DHT22;55066;51.560;4.642;2022-09-25T05:45:56;7.83;89.68
68251;DHT22;55066;51.560;4.642;2022-09-25T05:48:22;7.87;89.16
68251;DHT22;55066;51.560;4.642;2022-09-25T05:50:51;7.93;89.09
68251;DHT22;55066;51.560;4.642;2022-09-25T05:53:16;7.96;88.67
68251;DHT22;55066;51.560;4.642;2022-09-25T05:55:51;7.94;88.72
68251;DHT22;55066;51.560;4.642;2022-09-25T05:58:16;7.89;88.73
68251;DHT22;55066;51.560;4.642;2022-09-25T06:00:42;7.90;88.74
68251;DHT22;55066;51.560;4.642;2022-09-25T06:03:07;7.91;88.64
68251;DHT22;55066;51.560;4.642;2022-09-25T06:05:33;7.86;88.63
68251;DHT22;55066;51.560;4.642;2022-09-25T06:07:58;7.87;88.70
68251;DHT22;55066;51.560;4.642;2022-09-25T06:10:24;7.91;88.50
68251;DHT22;55066;51.560;4.642;2022-09-25T06:12:51;7.98;88.32
68251;DHT22;55066;51.560;4.642;2022-09-25T06:15:21;8.08;88.00
68251;DHT22;55066;51.560;4.642;2022-09-25T06:17:48;8.11;87.80
68251;DHT22;55066;51.560;4.642;2022-09-25T06:20:14;8.08;87.83
68251;DHT22;55066;51.560;4.642;2022-09-25T06:22:39;8.11;87.69
68251;DHT22;55066;51.560;4.642;2022-09-25T06:25:05;8.07;87.70
68251;DHT22;55066;51.560;4.642;2022-09-25T06:27:30;8.10;87.71
68251;DHT22;55066;51.560;4.642;2022-09-25T06:29:56;8.15;88.07
68251;DHT22;55066;51.560;4.642;2022-09-25T06:32:21;8.15;87.68
68251;DHT22;55066;51.560;4.642;2022-09-25T06:34:47;8.20;87.31
68251;DHT22;55066;51.560;4.642;2022-09-25T06:37:13;8.21;87.24
68251;DHT22;55066;51.560;4.642;2022-09-25T06:39:38;8.34;86.94
68251;DHT22;55066;51.560;4.642;2022-09-25T06:42:04;8.45;86.68
68251;DHT22;55066;51.560;4.642;2022-09-25T06:44:31;8.70;86.20
68251;DHT22;55066;51.560;4.642;2022-09-25T06:46:58;8.93;88.40
68251;DHT22;55066;51.560;4.642;2022-09-25T06:49:23;9.11;85.24
68251;DHT22;55066;51.560;4.642;2022-09-25T06:51:49;9.23;85.63
68251;DHT22;55066;51.560;4.642;2022-09-25T06:54:15;9.39;89.96
68251;DHT22;55066;51.560;4.642;2022-09-25T06:56:40;9.54;93.36
68251;DHT22;55066;51.560;4.642;2022-09-25T06:59:06;9.63;92.67
68251;DHT22;55066;51.560;4.642;2022-09-25T07:01:33;9.83;94.28
68251;DHT22;55066;51.560;4.642;2022-09-25T07:03:58;9.93;92.21
68251;DHT22;55066;51.560;4.642;2022-09-25T07:06:25;10.16;97.56
68251;DHT22;55066;51.560;4.642;2022-09-25T07:11:36;10.57;95.24
68251;DHT22;55066;51.560;4.642;2022-09-25T07:14:07;10.83;97.76
68251;DHT22;55066;51.560;4.642;2022-09-25T07:16:33;10.92;97.41
68251;DHT22;55066;51.560;4.642;2022-09-25T07:18:59;11.07;97.55
68251;DHT22;55066;51.560;4.642;2022-09-25T07:21:27;11.12;96.93
68251;DHT22;55066;51.560;4.642;2022-09-25T07:23:54;11.14;96.99
68251;DHT22;55066;51.560;4.642;2022-09-25T07:26:27;11.28;96.65
68251;DHT22;55066;51.560;4.642;2022-09-25T07:28:55;11.26;96.37
68251;DHT22;55066;51.560;4.642;2022-09-25T07:31:24;11.40;96.06
68251;DHT22;55066;51.560;4.642;2022-09-25T07:33:50;11.47;96.27
68251;DHT22;55066;51.560;4.642;2022-09-25T07:36:16;11.67;95.40
68251;DHT22;55066;51.560;4.642;2022-09-25T07:38:42;11.96;95.52
68251;DHT22;55066;51.560;4.642;2022-09-25T07:41:11;12.16;94.68
68251;DHT22;55066;51.560;4.642;2022-09-25T07:43:37;12.30;95.34
68251;DHT22;55066;51.560;4.642;2022-09-25T07:46:04;12.47;93.79
68251;DHT22;55066;51.560;4.642;2022-09-25T07:48:30;12.72;93.87
68251;DHT22;55066;51.560;4.642;2022-09-25T07:51:00;12.91;93.61
68251;DHT22;55066;51.560;4.642;2022-09-25T07:53:26;13.39;93.36
68251;DHT22;55066;51.560;4.642;2022-09-25T07:55:55;13.70;92.04
68251;DHT22;55066;51.560;4.642;2022-09-25T07:58:20;14.06;91.15
68251;DHT22;55066;51.560;4.642;2022-09-25T08:00:46;14.19;80.59
68251;DHT22;55066;51.560;4.642;2022-09-25T08:03:11;14.37;89.71
68251;DHT22;55066;51.560;4.642;2022-09-25T08:05:37;14.76;90.70
68251;DHT22;55066;51.560;4.642;2022-09-25T08:08:05;14.89;89.05
68251;DHT22;55066;51.560;4.642;2022-09-25T08:10:31;14.91;89.54
68251;DHT22;55066;51.560;4.642;2022-09-25T08:12:56;14.95;82.47
68251;DHT22;55066;51.560;4.642;2022-09-25T08:15:22;14.91;86.71
68251;DHT22;55066;51.560;4.642;2022-09-25T08:17:47;14.89;87.98
68251;DHT22;55066;51.560;4.642;2022-09-25T08:20:16;14.94;89.38
68251;DHT22;55066;51.560;4.642;2022-09-25T08:22:41;15.02;88.73
68251;DHT22;55066;51.560;4.642;2022-09-25T08:25:06;15.08;85.29
68251;DHT22;55066;51.560;4.642;2022-09-25T08:27:34;14.98;87.04
68251;DHT22;55066;51.560;4.642;2022-09-25T08:30:05;14.83;86.05
68251;DHT22;55066;51.560;4.642;2022-09-25T08:32:32;14.94;86.51
68251;DHT22;55066;51.560;4.642;2022-09-25T08:34:58;14.95;84.53
68251;DHT22;55066;51.560;4.642;2022-09-25T08:37:23;14.91;86.46
68251;DHT22;55066;51.560;4.642;2022-09-25T08:39:48;15.22;87.09
68251;DHT22;55066;51.560;4.642;2022-09-25T08:42:18;15.52;86.44
68251;DHT22;55066;51.560;4.642;2022-09-25T08:44:52;15.15;85.13
68251;DHT22;55066;51.560;4.642;2022-09-25T08:47:38;14.94;84.91
68251;DHT22;55066;51.560;4.642;2022-09-25T08:50:23;15.09;84.91
68251;DHT22;55066;51.560;4.642;2022-09-25T08:53:00;15.22;85.85
68251;DHT22;55066;51.560;4.642;2022-09-25T08:55:29;15.33;85.67
68251;DHT22;55066;51.560;4.642;2022-09-25T08:58:21;15.53;83.33
68251;DHT22;55066;51.560;4.642;2022-09-25T09:00:52;15.47;84.22
68251;DHT22;55066;51.560;4.642;2022-09-25T09:03:20;15.32;81.74
68251;DHT22;55066;51.560;4.642;2022-09-25T09:05:49;15.28;83.47
68251;DHT22;55066;51.560;4.642;2022-09-25T09:08:17;15.36;82.37
68251;DHT22;55066;51.560;4.642;2022-09-25T09:11:00;15.42;81.62
68251;DHT22;55066;51.560;4.642;2022-09-25T09:13:34;15.63;80.84
68251;DHT22;55066;51.560;4.642;2022-09-25T09:16:05;15.57;82.24
68251;DHT22;55066;51.560;4.642;2022-09-25T09:18:37;15.53;80.59
68251;DHT22;55066;51.560;4.642;2022-09-25T09:21:13;15.46;79.50
68251;DHT22;55066;51.560;4.642;2022-09-25T09:26:43;15.49;80.86
68251;DHT22;55066;51.560;4.642;2022-09-25T09:34:46;15.61;80.22
68251;DHT22;55066;51.560;4.642;2022-09-25T09:40:07;15.71;83.43
68251;DHT22;55066;51.560;4.642;2022-09-25T09:48:00;15.59;81.01
68251;DHT22;55066;51.560;4.642;2022-09-25T09:50:41;15.52;80.88
68251;DHT22;55066;51.560;4.642;2022-09-25T09:53:28;15.26;79.41
68251;DHT22;55066;51.560;4.642;2022-09-25T09:56:01;15.26;79.71
68251;DHT22;55066;51.560;4.642;2022-09-25T09:58:42;15.25;81.77
68251;DHT22;55066;51.560;4.642;2022-09-25T10:01:09;15.31;81.28
68251;DHT22;55066;51.560;4.642;2022-09-25T10:03:37;15.52;81.31
68251;DHT22;55066;51.560;4.642;2022-09-25T10:06:07;15.74;81.50
68251;DHT22;55066;51.560;4.642;2022-09-25T10:08:34;15.94;81.35
68251;DHT22;55066;51.560;4.642;2022-09-25T10:11:04;16.17;83.57
68251;DHT22;55066;51.560;4.642;2022-09-25T10:13:35;16.35;83.39
68251;DHT22;55066;51.560;4.642;2022-09-25T10:16:05;16.64;82.14
68251;DHT22;55066;51.560;4.642;2022-09-25T10:18:53;16.33;79.77
68251;DHT22;55066;51.560;4.642;2022-09-25T10:21:23;16.45;81.56
68251;DHT22;55066;51.560;4.642;2022-09-25T10:23:54;16.22;77.91
68251;DHT22;55066;51.560;4.642;2022-09-25T10:26:32;16.17;78.32
68251;DHT22;55066;51.560;4.642;2022-09-25T10:29:02;17.07;85.38
68251;DHT22;55066;51.560;4.642;2022-09-25T10:31:38;17.70;79.75
68251;DHT22;55066;51.560;4.642;2022-09-25T10:34:15;17.82;76.31
68251;DHT22;55066;51.560;4.642;2022-09-25T10:36:49;17.90;82.70
68251;DHT22;55066;51.560;4.642;2022-09-25T10:39:35;17.63;77.41
68251;DHT22;55066;51.560;4.642;2022-09-25T10:42:03;17.42;79.94
68251;DHT22;55066;51.560;4.642;2022-09-25T10:44:34;17.43;75.83
68251;DHT22;55066;51.560;4.642;2022-09-25T10:50:21;17.86;80.86
68251;DHT22;55066;51.560;4.642;2022-09-25T10:55:30;18.83;78.85
68251;DHT22;55066;51.560;4.642;2022-09-25T10:58:13;19.23;77.85
68251;DHT22;55066;51.560;4.642;2022-09-25T11:03:20;20.17;76.00
68251;DHT22;55066;51.560;4.642;2022-09-25T11:05:55;20.26;70.67
68251;DHT22;55066;51.560;4.642;2022-09-25T11:08:26;20.76;75.29
68251;DHT22;55066;51.560;4.642;2022-09-25T11:10:59;20.17;70.05
68251;DHT22;55066;51.560;4.642;2022-09-25T11:13:27;18.83;68.68
68251;DHT22;55066;51.560;4.642;2022-09-25T11:15:59;18.83;69.76
68251;DHT22;55066;51.560;4.642;2022-09-25T11:26:21;18.58;76.15
68251;DHT22;55066;51.560;4.642;2022-09-25T11:28:57;19.11;82.42
68251;DHT22;55066;51.560;4.642;2022-09-25T11:31:51;19.32;77.25
68251;DHT22;55066;51.560;4.642;2022-09-25T11:37:21;19.72;73.52
68251;DHT22;55066;51.560;4.642;2022-09-25T11:42:52;19.92;70.92
68251;DHT22;55066;51.560;4.642;2022-09-25T11:45:30;20.49;69.88
68251;DHT22;55066;51.560;4.642;2022-09-25T11:48:25;20.78;74.61
68251;DHT22;55066;51.560;4.642;2022-09-25T11:51:00;19.87;73.14
68251;DHT22;55066;51.560;4.642;2022-09-25T11:57:06;20.26;76.61
68251;DHT22;55066;51.560;4.642;2022-09-25T12:02:18;19.78;74.90
68251;DHT22;55066;51.560;4.642;2022-09-25T12:15:49;21.09;65.93
68251;DHT22;55066;51.560;4.642;2022-09-25T12:21:02;19.79;70.57
68251;DHT22;55066;51.560;4.642;2022-09-25T12:23:37;20.45;78.49
68251;DHT22;55066;51.560;4.642;2022-09-25T12:26:18;20.89;75.83
68251;DHT22;55066;51.560;4.642;2022-09-25T12:31:33;20.10;64.70
68251;DHT22;55066;51.560;4.642;2022-09-25T12:36:52;19.89;67.72
68251;DHT22;55066;51.560;4.642;2022-09-25T12:39:33;20.18;70.37
68251;DHT22;55066;51.560;4.642;2022-09-25T12:44:58;20.88;69.77
68251;DHT22;55066;51.560;4.642;2022-09-25T12:47:44;21.19;73.28
68251;DHT22;55066;51.560;4.642;2022-09-25T12:50:22;21.81;72.43
68251;DHT22;55066;51.560;4.642;2022-09-25T12:53:02;21.89;72.57
68251;DHT22;55066;51.560;4.642;2022-09-25T12:55:43;22.13;73.78
68251;DHT22;55066;51.560;4.642;2022-09-25T13:02:03;22.13;66.86
68251;DHT22;55066;51.560;4.642;2022-09-25T13:04:44;21.81;63.93
68251;DHT22;55066;51.560;4.642;2022-09-25T13:07:18;21.78;65.51
68251;DHT22;55066;51.560;4.642;2022-09-25T13:09:47;22.64;69.61
68251;DHT22;55066;51.560;4.642;2022-09-25T13:15:10;22.16;68.07
68251;DHT22;55066;51.560;4.642;2022-09-25T13:17:37;22.01;67.93
68251;DHT22;55066;51.560;4.642;2022-09-25T13:22:56;21.99;71.84
68251;DHT22;55066;51.560;4.642;2022-09-25T13:25:23;22.67;72.34
68251;DHT22;55066;51.560;4.642;2022-09-25T13:27:49;22.83;72.16
68251;DHT22;55066;51.560;4.642;2022-09-25T13:32:50;22.98;64.14
68251;DHT22;55066;51.560;4.642;2022-09-25T13:35:17;22.99;71.90
68251;DHT22;55066;51.560;4.642;2022-09-25T13:37:44;22.79;67.58
68251;DHT22;55066;51.560;4.642;2022-09-25T13:40:17;22.40;67.01
68251;DHT22;55066;51.560;4.642;2022-09-25T13:43:21;22.23;63.06
68251;DHT22;55066;51.560;4.642;2022-09-25T13:48:47;22.44;66.62
68251;DHT22;55066;51.560;4.642;2022-09-25T13:53:58;23.18;62.17
68251;DHT22;55066;51.560;4.642;2022-09-25T13:56:44;23.43;70.00
68251;DHT22;55066;51.560;4.642;2022-09-25T14:01:53;22.60;65.84
68251;DHT22;55066;51.560;4.642;2022-09-25T14:04:35;22.23;67.36
68251;DHT22;55066;51.560;4.642;2022-09-25T14:07:24;22.19;71.91
68251;DHT22;55066;51.560;4.642;2022-09-25T14:09:53;21.96;72.77
68251;DHT22;55066;51.560;4.642;2022-09-25T14:12:22;21.86;67.98
68251;DHT22;55066;51.560;4.642;2022-09-25T14:15:06;21.29;70.28
68251;DHT22;55066;51.560;4.642;2022-09-25T14:17:34;20.47;73.82
68251;DHT22;55066;51.560;4.642;2022-09-25T14:20:04;20.35;75.95
68251;DHT22;55066;51.560;4.642;2022-09-25T14:22:42;20.33;76.82
68251;DHT22;55066;51.560;4.642;2022-09-25T14:25:41;20.95;78.17
68251;DHT22;55066;51.560;4.642;2022-09-25T14:28:22;21.34;75.73
68251;DHT22;55066;51.560;4.642;2022-09-25T14:30:53;20.71;71.61
68251;DHT22;55066;51.560;4.642;2022-09-25T14:41:49;20.47;68.88
68251;DHT22;55066;51.560;4.642;2022-09-25T14:46:44;20.89;72.26
68251;DHT22;55066;51.560;4.642;2022-09-25T14:49:25;20.98;72.18
68251;DHT22;55066;51.560;4.642;2022-09-25T14:51:55;20.26;73.05
68251;DHT22;55066;51.560;4.642;2022-09-25T14:54:23;20.48;70.89
68251;DHT22;55066;51.560;4.642;2022-09-25T14:56:53;20.10;73.99
68251;DHT22;55066;51.560;4.642;2022-09-25T14:59:29;20.26;72.88
68251;DHT22;55066;51.560;4.642;2022-09-25T15:01:58;20.44;71.93
68251;DHT22;55066;51.560;4.642;2022-09-25T15:04:31;20.05;72.80
68251;DHT22;55066;51.560;4.642;2022-09-25T15:09:36;20.78;71.53
68251;DHT22;55066;51.560;4.642;2022-09-25T15:15:03;20.47;71.27
68251;DHT22;55066;51.560;4.642;2022-09-25T15:17:30;20.52;71.04
68251;DHT22;55066;51.560;4.642;2022-09-25T15:19:58;21.03;69.67
68251;DHT22;55066;51.560;4.642;2022-09-25T15:22:33;20.93;68.62
68251;DHT22;55066;51.560;4.642;2022-09-25T15:25:01;20.73;69.59
68251;DHT22;55066;51.560;4.642;2022-09-25T15:27:30;20.76;69.73
68251;DHT22;55066;51.560;4.642;2022-09-25T15:29:57;20.71;67.57
68251;DHT22;55066;51.560;4.642;2022-09-25T15:32:26;20.26;66.93
68251;DHT22;55066;51.560;4.642;2022-09-25T15:35:06;20.18;71.54
68251;DHT22;55066;51.560;4.642;2022-09-25T15:37:32;20.06;72.56
68251;DHT22;55066;51.560;4.642;2022-09-25T15:40:00;19.62;72.93
68251;DHT22;55066;51.560;4.642;2022-09-25T15:42:35;19.50;74.17
68251;DHT22;55066;51.560;4.642;2022-09-25T15:45:02;19.75;71.88
68251;DHT22;55066;51.560;4.642;2022-09-25T15:50:04;20.24;71.70
68251;DHT22;55066;51.560;4.642;2022-09-25T15:52:33;20.17;71.04
68251;DHT22;55066;51.560;4.642;2022-09-25T15:55:05;20.12;71.08
68251;DHT22;55066;51.560;4.642;2022-09-25T15:57:33;19.72;72.81
68251;DHT22;55066;51.560;4.642;2022-09-25T16:00:05;19.94;71.87
68251;DHT22;55066;51.560;4.642;2022-09-25T16:03:03;19.83;71.72
68251;DHT22;55066;51.560;4.642;2022-09-25T16:05:49;19.85;72.65
68251;DHT22;55066;51.560;4.642;2022-09-25T16:08:33;19.72;72.58
68251;DHT22;55066;51.560;4.642;2022-09-25T16:11:16;19.82;72.18
68251;DHT22;55066;51.560;4.642;2022-09-25T16:13:46;19.31;73.82
68251;DHT22;55066;51.560;4.642;2022-09-25T16:16:31;19.10;75.64
68251;DHT22;55066;51.560;4.642;2022-09-25T16:19:19;19.23;74.31
68251;DHT22;55066;51.560;4.642;2022-09-25T16:21:46;19.07;74.87
68251;DHT22;55066;51.560;4.642;2022-09-25T16:24:18;19.08;73.13
68251;DHT22;55066;51.560;4.642;2022-09-25T16:26:44;18.44;74.05
68251;DHT22;55066;51.560;4.642;2022-09-25T16:31:36;18.58;74.96
68251;DHT22;55066;51.560;4.642;2022-09-25T16:34:02;18.31;76.32
68251;DHT22;55066;51.560;4.642;2022-09-25T16:36:37;18.25;73.32
68251;DHT22;55066;51.560;4.642;2022-09-25T16:41:32;18.11;77.21
68251;DHT22;55066;51.560;4.642;2022-09-25T16:44:21;18.22;75.32
68251;DHT22;55066;51.560;4.642;2022-09-25T16:49:24;17.69;74.34
68251;DHT22;55066;51.560;4.642;2022-09-25T16:51:51;17.80;75.87
68251;DHT22;55066;51.560;4.642;2022-09-25T16:56:58;17.43;75.71
68251;DHT22;55066;51.560;4.642;2022-09-25T16:59:26;17.82;76.06
68251;DHT22;55066;51.560;4.642;2022-09-25T17:02:24;17.61;75.83
68251;DHT22;55066;51.560;4.642;2022-09-25T17:04:57;17.50;75.46
68251;DHT22;55066;51.560;4.642;2022-09-25T17:07:22;17.29;76.04
68251;DHT22;55066;51.560;4.642;2022-09-25T17:09:48;17.07;76.69
68251;DHT22;55066;51.560;4.642;2022-09-25T17:12:18;16.94;76.98
68251;DHT22;55066;51.560;4.642;2022-09-25T17:14:45;16.64;77.63
68251;DHT22;55066;51.560;4.642;2022-09-25T17:17:13;16.70;77.20
68251;DHT22;55066;51.560;4.642;2022-09-25T17:19:39;16.72;76.52
68251;DHT22;55066;51.560;4.642;2022-09-25T17:22:05;16.38;77.69
68251;DHT22;55066;51.560;4.642;2022-09-25T17:24:30;16.22;78.66
68251;DHT22;55066;51.560;4.642;2022-09-25T17:26:56;16.18;79.54
68251;DHT22;55066;51.560;4.642;2022-09-25T17:29:21;16.18;79.64
68251;DHT22;55066;51.560;4.642;2022-09-25T17:31:47;16.14;79.31
68251;DHT22;55066;51.560;4.642;2022-09-25T17:34:20;16.09;79.39
68251;DHT22;55066;51.560;4.642;2022-09-25T17:36:49;15.96;79.33
68251;DHT22;55066;51.560;4.642;2022-09-25T17:39:15;15.94;79.31
68251;DHT22;55066;51.560;4.642;2022-09-25T17:41:41;15.78;79.76
68251;DHT22;55066;51.560;4.642;2022-09-25T17:44:14;15.77;79.40
68251;DHT22;55066;51.560;4.642;2022-09-25T17:46:41;15.83;79.05
68251;DHT22;55066;51.560;4.642;2022-09-25T17:49:06;15.83;79.00
68251;DHT22;55066;51.560;4.642;2022-09-25T17:51:32;15.96;78.54
68251;DHT22;55066;51.560;4.642;2022-09-25T17:53:57;15.88;78.69
68251;DHT22;55066;51.560;4.642;2022-09-25T17:56:24;15.78;78.89
68251;DHT22;55066;51.560;4.642;2022-09-25T17:58:50;15.77;78.87
68251;DHT22;55066;51.560;4.642;2022-09-25T18:01:23;15.73;79.06
68251;DHT22;55066;51.560;4.642;2022-09-25T18:03:56;15.57;79.32
68251;DHT22;55066;51.560;4.642;2022-09-25T18:06:23;15.63;79.28
68251;DHT22;55066;51.560;4.642;2022-09-25T18:08:49;15.61;79.28
68251;DHT22;55066;51.560;4.642;2022-09-25T18:11:16;15.63;79.63
68251;DHT22;55066;51.560;4.642;2022-09-25T18:13:42;15.63;79.53
68251;DHT22;55066;51.560;4.642;2022-09-25T18:16:16;15.38;81.39
68251;DHT22;55066;51.560;4.642;2022-09-25T18:18:43;15.52;79.58
68251;DHT22;55066;51.560;4.642;2022-09-25T18:21:27;15.53;79.51
68251;DHT22;55066;51.560;4.642;2022-09-25T18:24:11;15.42;79.73